aviador You're here:

KPNE Decoded Metar

PHILADELPHIA in PA, USA
Report Time2017-05-26 12:54:00
UTC Time2017-05-26 13:10:50
Flight Rules vfr VFR
Wind280° at 10 Gusting to 17 kt
W.Decomp.*RWY 33: 7.9 kt HW 6.2 kt LCW
RWY 24: 6.2 kt HW 7.9 kt RCW
W.Rank280° ranks 3
Current wind is above 280° avg. (8.7)
Visibility9999 m
Phenomena:N/A
Clouds:N/A
Expected CloudBase > 1,600 ft AGL from Temp-Dew spread
CeilingNone
Temp19°C (ISA +4)
Dew Point15°C (78% RH)
AAT17.0°C
QNH1004 hPa
Density Alt1,115 ft
Elevation92 ft
Report Wrong Elevation
Raw Report
KPNE 261254Z 28010G17KT 10SM CLR 19/15 A2965 RMK AO2 SLP041
T01940150=

Extra information for KPNE:More info

Metar Taf Metar & Taf Last 4 Metars F.Rules Stats Wind Profile Meteogram Temp Stats Airport Information Weather charts Add Link Nearby VenuesMetar ALERT Operation Metar Decoded Social comments

AIRNAV info for KPNE